createdAt,value
2022-12-17T00:00:52.550Z,34.70
2022-12-17T00:04:33.640Z,54.00
2022-12-17T00:08:47.345Z,38.70
2022-12-17T00:12:46.915Z,43.30
2022-12-17T00:16:48.564Z,31.30
2022-12-17T00:20:48.111Z,43.60
2022-12-17T00:24:28.841Z,42.20
2022-12-17T00:28:30.990Z,37.60
2022-12-17T00:32:11.976Z,37.10
2022-12-17T00:35:53.569Z,56.50
2022-12-17T00:39:59.126Z,41.30
2022-12-17T00:43:42.158Z,23.80
2022-12-17T00:47:23.389Z,32.80
2022-12-17T00:51:23.758Z,34.70
2022-12-17T00:55:04.843Z,46.50
2022-12-17T00:59:05.663Z,47.30
2022-12-17T01:02:47.080Z,48.90
2022-12-17T01:06:29.284Z,28.20
2022-12-17T01:10:10.644Z,32.30
2022-12-17T01:13:52.077Z,32.20
2022-12-17T01:17:33.773Z,41.70
2022-12-17T01:21:34.698Z,39.50
2022-12-17T01:25:35.397Z,31.30
2022-12-17T01:29:17.441Z,41.90
2022-12-17T01:32:59.638Z,46.80
2022-12-17T01:36:41.431Z,52.50
2022-12-17T01:40:42.223Z,40.20
2022-12-17T01:44:57.674Z,28.20
2022-12-17T01:48:46.314Z,41.50
2022-12-17T01:52:50.960Z,50.80
2022-12-17T01:56:35.429Z,45.90
2022-12-17T02:04:05.658Z,48.80
2022-12-17T02:08:03.416Z,39.40
2022-12-17T02:11:55.521Z,28.00
2022-12-17T02:15:44.940Z,33.00
2022-12-17T02:19:44.318Z,40.00
2022-12-17T02:24:07.756Z,37.50
2022-12-17T02:28:09.008Z,46.50
2022-12-17T02:31:52.287Z,44.30
2022-12-17T02:35:59.151Z,52.60
2022-12-17T02:39:59.376Z,36.70
2022-12-17T02:43:59.108Z,47.50
2022-12-17T02:47:43.078Z,44.40
2022-12-17T02:51:44.865Z,40.10
2022-12-17T02:55:45.596Z,41.20
2022-12-17T02:59:27.645Z,44.00
2022-12-17T03:03:10.125Z,49.40
2022-12-17T03:07:11.357Z,37.90
2022-12-17T03:11:11.757Z,57.50
2022-12-17T03:15:11.929Z,60.60
2022-12-17T03:19:12.757Z,66.60
2022-12-17T03:22:53.853Z,51.80
2022-12-17T03:26:35.872Z,48.30
2022-12-17T03:30:17.819Z,58.70
2022-12-17T03:33:59.331Z,44.90
2022-12-17T03:38:00.124Z,55.90
2022-12-17T03:41:40.988Z,41.80
2022-12-17T03:45:23.306Z,50.90
2022-12-17T03:49:04.793Z,52.80
2022-12-17T03:53:05.603Z,52.70
2022-12-17T03:57:07.913Z,59.70
2022-12-17T04:00:51.949Z,56.30
2022-12-17T04:04:33.541Z,57.50
2022-12-17T04:08:34.394Z,46.60
2022-12-17T04:12:15.438Z,45.10
2022-12-17T04:15:57.685Z,52.30
2022-12-17T04:19:39.849Z,49.30
2022-12-17T04:23:21.610Z,59.70
2022-12-17T04:27:03.564Z,59.20
2022-12-17T04:31:04.586Z,50.80
2022-12-17T04:35:04.666Z,66.60
2022-12-17T04:39:04.928Z,52.90
2022-12-17T04:43:04.910Z,34.70
2022-12-17T04:46:47.215Z,39.20
2022-12-17T04:50:47.762Z,46.90
2022-12-17T04:54:47.620Z,48.20
2022-12-17T04:58:28.441Z,57.70
2022-12-17T05:02:29.107Z,39.20
2022-12-17T05:06:28.755Z,47.50
2022-12-17T05:10:09.673Z,54.30
2022-12-17T05:13:51.179Z,54.90
2022-12-17T05:17:51.270Z,42.40
2022-12-17T05:21:33.586Z,67.20
2022-12-17T05:25:15.282Z,58.90
2022-12-17T05:28:57.093Z,52.40
2022-12-17T05:32:39.000Z,64.30
2022-12-17T05:36:22.161Z,47.60
2022-12-17T05:40:24.439Z,40.00
2022-12-17T05:44:06.171Z,43.40
2022-12-17T05:48:06.921Z,53.00
2022-12-17T05:51:48.087Z,41.70
2022-12-17T05:55:48.929Z,44.50
2022-12-17T05:59:29.755Z,52.50
2022-12-17T06:03:23.604Z,33.50
2022-12-17T06:07:24.476Z,46.50
2022-12-17T06:11:05.541Z,27.00
2022-12-17T06:15:06.504Z,51.70
2022-12-17T06:18:47.609Z,63.80
2022-12-17T06:22:47.861Z,54.50
2022-12-17T06:26:29.532Z,41.90
2022-12-17T06:30:14.265Z,43.90
2022-12-17T06:34:00.487Z,44.20
2022-12-17T06:37:42.947Z,54.30
2022-12-17T06:41:24.771Z,58.80
2022-12-17T06:45:08.085Z,45.10
2022-12-17T06:48:50.097Z,73.80
2022-12-17T06:52:31.910Z,50.90
2022-12-17T06:56:40.494Z,57.00
2022-12-17T07:00:40.609Z,47.00
2022-12-17T07:04:40.489Z,58.00
2022-12-17T07:08:21.733Z,53.60
2022-12-17T07:12:21.965Z,57.00
2022-12-17T07:16:02.904Z,51.60
2022-12-17T07:20:03.138Z,67.80
2022-12-17T07:23:44.700Z,42.40
2022-12-17T07:27:26.632Z,53.70
2022-12-17T07:31:08.040Z,69.40
2022-12-17T07:34:49.525Z,43.80
2022-12-17T07:38:31.339Z,50.60
2022-12-17T07:42:12.724Z,54.70
2022-12-17T07:45:54.128Z,62.10
2022-12-17T07:49:54.400Z,68.40
2022-12-17T07:53:54.632Z,40.00
2022-12-17T07:57:35.128Z,43.10
2022-12-17T08:01:20.814Z,58.10
2022-12-17T08:05:02.615Z,67.20
2022-12-17T08:08:44.142Z,62.70
2022-12-17T08:12:25.776Z,65.40
2022-12-17T08:16:26.286Z,70.60
2022-12-17T08:20:07.235Z,44.00
2022-12-17T08:23:48.766Z,46.20
2022-12-17T08:27:30.712Z,46.50
2022-12-17T08:31:31.221Z,61.20
2022-12-17T08:35:12.181Z,56.50
2022-12-17T08:38:53.436Z,68.90
2022-12-17T08:42:34.964Z,65.50
2022-12-17T08:46:16.899Z,65.90
2022-12-17T08:50:17.477Z,56.00
2022-12-17T08:53:58.445Z,70.80
2022-12-17T08:57:39.870Z,68.10
2022-12-17T09:01:40.565Z,66.00
2022-12-17T09:05:40.405Z,68.10
2022-12-17T09:09:41.394Z,61.10
2022-12-17T09:13:23.518Z,46.00
2022-12-17T09:17:04.749Z,52.80
2022-12-17T09:20:46.041Z,83.00
2022-12-17T09:24:30.523Z,68.00
2022-12-17T09:28:12.456Z,67.30
2022-12-17T09:31:54.222Z,44.10
2022-12-17T09:35:35.701Z,57.00
2022-12-17T09:39:17.733Z,46.50
2022-12-17T09:43:15.825Z,49.00
2022-12-17T09:47:08.582Z,55.30
2022-12-17T09:50:50.449Z,55.60
2022-12-17T09:55:03.435Z,70.70
2022-12-17T09:59:02.909Z,54.00
2022-12-17T10:02:49.318Z,63.60
2022-12-17T10:06:36.444Z,74.90
2022-12-17T10:10:29.791Z,75.60
2022-12-17T10:14:41.704Z,61.70
2022-12-17T10:18:41.346Z,57.20
2022-12-17T10:22:31.770Z,66.00
2022-12-17T10:26:15.401Z,63.50
2022-12-17T10:29:59.548Z,61.70
2022-12-17T10:33:42.806Z,57.30
2022-12-17T10:37:43.521Z,61.50
2022-12-17T10:41:44.449Z,59.50
2022-12-17T10:45:53.088Z,54.20
2022-12-17T10:49:39.661Z,56.20
2022-12-17T10:53:36.048Z,64.20
2022-12-17T10:57:50.895Z,73.30
2022-12-17T11:01:51.405Z,63.00
2022-12-17T11:05:59.397Z,51.40
2022-12-17T11:10:09.869Z,48.70
2022-12-17T11:13:56.238Z,55.00
2022-12-17T11:17:39.204Z,44.00
2022-12-17T11:21:44.750Z,63.70
2022-12-17T11:25:55.171Z,63.60
2022-12-17T11:29:37.210Z,43.40
2022-12-17T11:33:37.551Z,70.90
2022-12-17T11:37:28.732Z,52.70
2022-12-17T11:41:51.702Z,54.80
2022-12-17T11:45:50.380Z,51.60
2022-12-17T11:50:07.772Z,68.00
2022-12-17T11:54:18.938Z,64.20
2022-12-17T11:58:25.036Z,68.20
2022-12-17T12:02:29.754Z,65.90
2022-12-17T12:06:19.634Z,78.90
2022-12-17T12:10:18.836Z,58.30
2022-12-17T12:14:36.296Z,50.10
2022-12-17T12:18:45.279Z,52.40
2022-12-17T12:22:35.848Z,67.60
2022-12-17T12:26:34.477Z,64.60
2022-12-17T12:30:41.330Z,52.50
2022-12-17T12:35:07.545Z,68.80
2022-12-17T12:39:02.406Z,52.40
2022-12-17T12:43:09.666Z,70.50
2022-12-17T12:47:25.154Z,59.50
2022-12-17T12:51:19.406Z,64.40
2022-12-17T12:55:07.018Z,56.00
2022-12-17T12:58:52.070Z,71.80
2022-12-17T13:02:53.377Z,47.50
2022-12-17T13:06:45.731Z,62.10
2022-12-17T13:10:30.438Z,65.00
2022-12-17T13:13:58.301Z,72.40
2022-12-17T13:18:01.890Z,73.10
2022-12-17T13:21:46.377Z,55.30
2022-12-17T13:25:27.492Z,55.70
2022-12-17T13:29:32.271Z,48.20
2022-12-17T13:33:22.152Z,65.60
2022-12-17T13:37:20.645Z,56.70
2022-12-17T13:40:46.261Z,61.00
2022-12-17T13:44:25.402Z,66.30
2022-12-17T13:48:23.719Z,68.80
2022-12-17T13:51:46.516Z,53.90
2022-12-17T13:55:29.324Z,46.60
2022-12-17T13:59:09.283Z,46.60
2022-12-17T14:02:39.332Z,56.10
2022-12-17T14:06:16.904Z,49.40
2022-12-17T14:09:55.881Z,63.40
2022-12-17T14:13:51.809Z,56.90
2022-12-17T14:17:20.196Z,54.60
2022-12-17T14:20:55.856Z,37.30
2022-12-17T14:24:48.540Z,57.50
2022-12-17T14:28:35.323Z,51.00
2022-12-17T14:32:21.367Z,48.40
2022-12-17T14:35:52.600Z,32.90
2022-12-17T14:39:33.033Z,42.50
2022-12-17T14:43:01.486Z,44.80
2022-12-17T14:47:19.056Z,64.00
2022-12-17T14:51:00.298Z,67.10
2022-12-17T14:54:32.268Z,64.00
2022-12-17T14:58:12.445Z,54.50
2022-12-17T15:01:40.902Z,52.60
2022-12-17T15:05:17.005Z,48.30
2022-12-17T15:09:13.040Z,52.30
2022-12-17T15:12:54.119Z,62.70
2022-12-17T15:16:16.236Z,67.50
2022-12-17T15:20:18.410Z,50.20
2022-12-17T15:23:43.621Z,52.20
2022-12-17T15:27:18.107Z,65.00
2022-12-17T15:31:14.910Z,51.70
2022-12-17T15:34:37.013Z,36.00
2022-12-17T15:38:14.758Z,52.10
2022-12-17T15:42:11.114Z,60.70
2022-12-17T15:45:33.902Z,58.30
2022-12-17T15:49:11.583Z,85.70
2022-12-17T15:52:49.392Z,65.20
2022-12-17T15:56:28.617Z,64.40
2022-12-17T16:00:05.450Z,59.80
2022-12-17T16:03:42.471Z,54.80
2022-12-17T16:07:19.989Z,61.50
2022-12-17T16:10:57.663Z,78.90
2022-12-17T16:14:35.241Z,65.80
2022-12-17T16:18:13.016Z,85.80
2022-12-17T16:21:50.813Z,81.00
2022-12-17T16:25:28.223Z,52.20
2022-12-17T16:29:06.707Z,50.20
2022-12-17T16:32:43.698Z,60.10
2022-12-17T16:36:22.350Z,55.50
2022-12-17T16:40:00.370Z,50.00
2022-12-17T16:43:36.647Z,63.50
2022-12-17T16:47:14.261Z,40.30
2022-12-17T16:51:25.873Z,63.10
2022-12-17T16:55:09.270Z,51.20
2022-12-17T16:58:31.854Z,48.60
2022-12-17T17:02:13.710Z,51.40
2022-12-17T17:05:47.456Z,25.80
2022-12-17T17:09:26.600Z,60.50
2022-12-17T17:13:21.487Z,52.30
2022-12-17T17:16:45.462Z,47.70
2022-12-17T17:20:42.817Z,47.70
2022-12-17T17:24:14.209Z,37.20
2022-12-17T17:28:01.337Z,52.00
2022-12-17T17:31:46.421Z,60.00
2022-12-17T17:35:07.770Z,69.60
2022-12-17T17:38:46.945Z,48.80
2022-12-17T17:42:22.712Z,57.00
2022-12-17T17:46:08.480Z,57.40
2022-12-17T17:49:38.135Z,68.30
2022-12-17T17:53:35.565Z,54.70
2022-12-17T17:56:58.407Z,44.00
2022-12-17T18:00:54.847Z,66.00
2022-12-17T18:04:36.592Z,52.10
2022-12-17T18:07:59.009Z,59.10
2022-12-17T18:11:38.182Z,60.40
2022-12-17T18:15:16.278Z,67.70
2022-12-17T18:18:55.098Z,50.00
2022-12-17T18:22:29.307Z,58.20
2022-12-17T18:26:08.803Z,46.00
2022-12-17T18:29:44.902Z,43.00
2022-12-17T18:33:44.976Z,49.00
2022-12-17T18:37:26.572Z,51.50
2022-12-17T18:40:49.248Z,60.00
2022-12-17T18:44:25.379Z,60.80
2022-12-17T18:48:05.434Z,58.70
2022-12-17T18:51:44.803Z,46.00
2022-12-17T18:55:19.656Z,40.30
2022-12-17T18:58:57.647Z,40.50
2022-12-17T19:02:37.872Z,44.10
2022-12-17T19:06:12.782Z,57.40
2022-12-17T19:09:50.377Z,57.40
2022-12-17T19:13:28.079Z,63.00
2022-12-17T19:17:06.235Z,44.70
2022-12-17T19:20:46.542Z,35.60
2022-12-17T19:24:22.190Z,43.80
2022-12-17T19:28:17.799Z,50.30
2022-12-17T19:31:40.225Z,56.00
2022-12-17T19:35:17.523Z,32.70
2022-12-17T19:38:59.939Z,47.00
2022-12-17T19:42:37.295Z,50.40
2022-12-17T19:46:15.949Z,49.30
2022-12-17T19:50:07.202Z,53.70
2022-12-17T19:53:49.317Z,55.30
2022-12-17T19:57:11.657Z,38.90
2022-12-17T20:01:14.419Z,40.80
2022-12-17T20:04:37.013Z,39.60
2022-12-17T20:08:19.431Z,41.00
2022-12-17T20:12:12.261Z,38.80
2022-12-17T20:15:36.448Z,38.90
2022-12-17T20:19:19.632Z,45.60
2022-12-17T20:22:49.987Z,49.30
2022-12-17T20:26:30.631Z,18.00
2022-12-17T20:30:07.098Z,18.90
2022-12-17T20:34:07.903Z,38.30
2022-12-17T20:37:30.571Z,23.60
2022-12-17T20:41:30.027Z,31.50
2022-12-17T20:44:53.693Z,28.80
2022-12-17T20:52:08.017Z,22.30
2022-12-17T20:55:45.717Z,28.30
2022-12-17T20:59:42.330Z,22.70
2022-12-17T21:03:04.737Z,38.70
2022-12-17T21:06:45.372Z,37.60
2022-12-17T21:10:20.007Z,17.20
2022-12-17T21:13:58.695Z,23.90
2022-12-17T21:17:54.139Z,40.10
2022-12-17T21:21:19.332Z,32.50
2022-12-17T21:24:54.320Z,31.20
2022-12-17T21:28:52.455Z,24.70
2022-12-17T21:32:14.916Z,26.60
2022-12-17T21:36:11.288Z,30.00
2022-12-17T21:39:34.707Z,27.40
2022-12-17T21:43:12.352Z,29.80
2022-12-17T21:46:50.546Z,18.80
2022-12-17T21:50:27.856Z,15.20
2022-12-17T21:54:08.333Z,22.10
2022-12-17T21:58:02.877Z,22.80
2022-12-17T22:01:29.803Z,27.40
2022-12-17T22:05:02.859Z,24.30
2022-12-17T22:08:42.316Z,28.80
2022-12-17T22:12:36.924Z,30.30
2022-12-17T22:16:06.293Z,22.60
2022-12-17T22:19:40.098Z,27.40
2022-12-17T22:23:17.625Z,24.50
2022-12-17T22:27:13.988Z,33.50
2022-12-17T22:30:59.554Z,19.90
2022-12-17T22:34:53.315Z,27.30
2022-12-17T22:41:50.356Z,24.90
2022-12-17T22:44:38.996Z,26.80
2022-12-17T22:59:23.574Z,22.30
2022-12-17T23:03:03.129Z,22.40
2022-12-17T23:06:38.876Z,24.50
2022-12-17T23:10:17.863Z,23.80
2022-12-17T23:14:13.753Z,29.80
2022-12-17T23:17:37.556Z,30.70
2022-12-17T23:21:34.636Z,30.90
2022-12-17T23:24:57.188Z,34.90
2022-12-17T23:28:59.626Z,32.60
2022-12-17T23:32:22.602Z,22.30
2022-12-17T23:36:08.571Z,28.50
2022-12-17T23:39:37.434Z,31.00
2022-12-17T23:43:18.088Z,27.20
2022-12-17T23:47:11.753Z,25.30
2022-12-17T23:50:33.861Z,25.60
2022-12-17T23:54:11.812Z,23.80
2022-12-17T23:58:08.020Z,23.80
